createdAt,value
2023-05-08T00:02:10.703Z,65.30
2023-05-08T00:04:37.137Z,65.36
2023-05-08T00:07:03.719Z,65.26
2023-05-08T00:09:30.395Z,65.52
2023-05-08T00:11:56.952Z,65.37
2023-05-08T00:14:23.388Z,65.33
2023-05-08T00:16:49.855Z,65.37
2023-05-08T00:19:16.574Z,65.26
2023-05-08T00:21:43.162Z,65.16
2023-05-08T00:24:09.603Z,65.11
2023-05-08T00:26:36.004Z,65.28
2023-05-08T00:29:03.680Z,65.11
2023-05-08T00:31:30.945Z,65.19
2023-05-08T00:33:57.338Z,65.11
2023-05-08T00:36:23.757Z,64.92
2023-05-08T00:38:50.149Z,64.90
2023-05-08T00:41:16.635Z,64.94
2023-05-08T00:43:43.513Z,64.83
2023-05-08T00:46:10.212Z,64.66
2023-05-08T00:48:37.857Z,64.46
2023-05-08T00:51:08.183Z,64.57
2023-05-08T00:53:38.524Z,64.14
2023-05-08T00:56:05.751Z,63.71
2023-05-08T00:58:32.792Z,64.09
2023-05-08T01:01:00.736Z,64.03
2023-05-08T01:03:28.631Z,64.27
2023-05-08T01:05:55.160Z,64.27
2023-05-08T01:08:22.137Z,64.14
2023-05-08T01:10:48.576Z,63.70
2023-05-08T01:13:31.731Z,63.96
2023-05-08T01:16:09.634Z,63.88
2023-05-08T01:18:45.796Z,63.47
2023-05-08T01:21:32.251Z,63.54
2023-05-08T01:24:39.155Z,63.46
2023-05-08T01:27:23.434Z,63.28
2023-05-08T01:30:05.875Z,63.19
2023-05-08T01:32:39.025Z,63.24
2023-05-08T01:35:23.976Z,63.15
2023-05-08T01:38:00.698Z,63.44
2023-05-08T01:40:36.219Z,62.71
2023-05-08T01:43:26.498Z,63.14
2023-05-08T01:45:55.718Z,63.13
2023-05-08T01:48:32.596Z,63.26
2023-05-08T01:51:05.301Z,63.29
2023-05-08T01:53:39.296Z,63.26
2023-05-08T01:56:11.991Z,63.35
2023-05-08T01:58:39.917Z,63.08
2023-05-08T02:01:07.925Z,63.36
2023-05-08T02:03:35.622Z,63.41
2023-05-08T02:06:02.681Z,63.32
2023-05-08T02:08:33.694Z,63.32
2023-05-08T02:11:01.841Z,63.71
2023-05-08T02:13:30.145Z,63.52
2023-05-08T02:15:58.201Z,63.54
2023-05-08T02:18:26.066Z,63.69
2023-05-08T02:20:54.168Z,63.47
2023-05-08T02:23:23.334Z,63.75
2023-05-08T02:25:51.143Z,64.05
2023-05-08T02:28:18.713Z,64.01
2023-05-08T02:30:46.964Z,64.69
2023-05-08T02:33:15.936Z,64.40
2023-05-08T02:35:44.438Z,64.54
2023-05-08T02:38:13.072Z,64.45
2023-05-08T02:40:47.460Z,64.73
2023-05-08T02:43:14.120Z,64.68
2023-05-08T02:45:49.730Z,64.99
2023-05-08T02:48:33.408Z,64.97
2023-05-08T02:51:21.538Z,64.87
2023-05-08T02:53:54.527Z,65.39
2023-05-08T02:56:36.049Z,65.24
2023-05-08T02:59:20.316Z,65.23
2023-05-08T03:01:54.094Z,65.74
2023-05-08T03:04:29.138Z,66.02
2023-05-08T03:06:58.265Z,66.10
2023-05-08T03:09:27.922Z,66.30
2023-05-08T03:12:02.346Z,66.64
2023-05-08T03:14:32.139Z,66.54
2023-05-08T03:17:01.099Z,66.96
2023-05-08T03:19:34.046Z,67.52
2023-05-08T03:22:02.722Z,67.67
2023-05-08T03:24:31.340Z,67.85
2023-05-08T03:26:59.217Z,68.25
2023-05-08T03:29:27.070Z,68.12
2023-05-08T03:31:54.688Z,67.96
2023-05-08T03:34:23.167Z,68.25
2023-05-08T03:36:50.903Z,68.92
2023-05-08T03:39:17.609Z,69.05
2023-05-08T03:41:44.162Z,68.97
2023-05-08T03:44:11.602Z,69.72
2023-05-08T03:46:38.857Z,69.42
2023-05-08T03:49:08.605Z,69.89
2023-05-08T03:51:38.692Z,69.82
2023-05-08T03:54:05.176Z,69.77
2023-05-08T03:56:31.698Z,69.48
2023-05-08T03:59:14.267Z,70.29
2023-05-08T04:01:54.092Z,70.11
2023-05-08T04:04:33.833Z,70.44
2023-05-08T04:07:09.466Z,70.30
2023-05-08T04:09:44.254Z,70.49
2023-05-08T04:12:19.935Z,71.02
2023-05-08T04:15:07.628Z,70.38
2023-05-08T04:17:40.181Z,70.88
2023-05-08T04:20:09.024Z,70.70
2023-05-08T04:22:37.051Z,70.26
2023-05-08T04:25:07.920Z,70.87
2023-05-08T04:27:35.645Z,70.75
2023-05-08T04:30:02.642Z,70.66
2023-05-08T04:32:30.457Z,70.60
2023-05-08T04:34:57.044Z,70.16
2023-05-08T04:37:28.378Z,70.37
2023-05-08T04:39:55.262Z,70.15
2023-05-08T04:42:21.845Z,69.96
2023-05-08T04:44:48.345Z,70.37
2023-05-08T04:47:14.950Z,70.08
2023-05-08T04:49:41.680Z,69.39
2023-05-08T04:52:08.281Z,69.17
2023-05-08T04:54:35.226Z,69.09
2023-05-08T04:57:01.840Z,68.64
2023-05-08T04:59:29.444Z,68.86
2023-05-08T05:01:57.197Z,68.70
2023-05-08T05:04:23.641Z,68.77
2023-05-08T05:06:50.084Z,68.31
2023-05-08T05:09:16.625Z,68.28
2023-05-08T05:11:43.066Z,67.92
2023-05-08T05:14:09.461Z,67.96
2023-05-08T05:16:35.892Z,67.66
2023-05-08T05:19:02.538Z,67.52
2023-05-08T05:21:29.089Z,67.28
2023-05-08T05:23:55.589Z,67.17
2023-05-08T05:26:22.164Z,66.61
2023-05-08T05:28:48.882Z,66.89
2023-05-08T05:31:15.444Z,66.29
2023-05-08T05:33:42.458Z,66.77
2023-05-08T05:36:09.099Z,66.01
2023-05-08T05:38:35.475Z,66.04
2023-05-08T05:41:02.039Z,65.80
2023-05-08T05:43:28.489Z,65.35
2023-05-08T05:45:56.110Z,65.04
2023-05-08T05:48:22.528Z,63.87
2023-05-08T05:50:48.956Z,63.14
2023-05-08T05:53:15.808Z,62.87
2023-05-08T05:55:42.352Z,62.23
2023-05-08T05:58:08.973Z,62.25
2023-05-08T06:00:35.437Z,62.24
2023-05-08T06:03:02.966Z,62.60
2023-05-08T06:05:29.915Z,62.10
2023-05-08T06:07:57.169Z,62.35
2023-05-08T06:10:24.015Z,61.14
2023-05-08T06:12:50.522Z,61.13
2023-05-08T06:15:17.023Z,60.92
2023-05-08T06:17:46.146Z,59.93
2023-05-08T06:20:12.680Z,60.25
2023-05-08T06:22:40.913Z,59.75
2023-05-08T06:25:08.519Z,60.16
2023-05-08T06:27:35.661Z,59.66
2023-05-08T06:30:02.479Z,59.76
2023-05-08T06:32:29.199Z,59.94
2023-05-08T06:34:55.831Z,59.87
2023-05-08T06:37:22.748Z,59.83
2023-05-08T06:39:54.585Z,59.93
2023-05-08T06:42:27.292Z,59.62
2023-05-08T06:44:53.803Z,59.09
2023-05-08T06:47:20.612Z,57.96
2023-05-08T06:49:47.064Z,57.97
2023-05-08T06:52:13.500Z,57.33
2023-05-08T06:54:41.304Z,57.22
2023-05-08T06:57:08.817Z,57.07
2023-05-08T06:59:35.349Z,57.32
2023-05-08T07:02:01.817Z,57.30
2023-05-08T07:04:30.143Z,57.79
2023-05-08T07:06:57.859Z,57.59
2023-05-08T07:09:24.246Z,57.72
2023-05-08T07:11:50.666Z,56.60
2023-05-08T07:14:17.322Z,57.13
2023-05-08T07:16:43.947Z,56.83
2023-05-08T07:19:10.798Z,56.38
2023-05-08T07:21:38.625Z,56.04
2023-05-08T07:24:05.375Z,55.76
2023-05-08T07:26:31.807Z,56.74
2023-05-08T07:28:58.482Z,55.87
2023-05-08T07:31:25.034Z,55.11
2023-05-08T07:33:51.656Z,55.03
2023-05-08T07:36:18.189Z,54.30
2023-05-08T07:38:44.653Z,54.74
2023-05-08T07:41:11.264Z,54.49
2023-05-08T07:43:37.960Z,54.57
2023-05-08T07:46:05.515Z,54.79
2023-05-08T07:48:31.961Z,53.84
2023-05-08T07:50:58.416Z,53.88
2023-05-08T07:53:24.878Z,54.63
2023-05-08T07:55:51.381Z,53.65
2023-05-08T07:58:20.475Z,53.07
2023-05-08T08:00:48.070Z,52.82
2023-05-08T08:03:14.530Z,52.61
2023-05-08T08:05:41.949Z,52.41
2023-05-08T08:08:08.426Z,52.39
2023-05-08T08:10:34.952Z,51.79
2023-05-08T08:13:04.827Z,51.87
2023-05-08T08:15:31.419Z,52.08
2023-05-08T08:17:57.881Z,51.78
2023-05-08T08:20:24.376Z,51.39
2023-05-08T08:22:50.972Z,50.88
2023-05-08T08:25:17.858Z,50.68
2023-05-08T08:27:44.284Z,49.79
2023-05-08T08:30:17.715Z,50.48
2023-05-08T08:32:45.209Z,50.45
2023-05-08T08:35:12.094Z,49.82
2023-05-08T08:37:38.865Z,49.90
2023-05-08T08:40:06.396Z,50.37
2023-05-08T08:42:32.863Z,51.05
2023-05-08T08:45:00.420Z,50.24
2023-05-08T08:47:29.770Z,50.04
2023-05-08T08:50:00.486Z,52.84
2023-05-08T08:52:55.644Z,49.36
2023-05-08T08:55:23.691Z,49.41
2023-05-08T08:58:11.525Z,49.57
2023-05-08T09:00:38.688Z,48.83
2023-05-08T09:03:09.367Z,48.90
2023-05-08T09:05:36.688Z,48.71
2023-05-08T09:08:03.302Z,48.24
2023-05-08T09:10:30.059Z,48.79
2023-05-08T09:12:56.715Z,49.39
2023-05-08T09:15:23.278Z,49.94
2023-05-08T09:17:49.900Z,49.70
2023-05-08T09:20:16.745Z,48.93
2023-05-08T09:22:43.632Z,48.70
2023-05-08T09:25:10.910Z,49.02
2023-05-08T09:27:37.500Z,48.87
2023-05-08T09:30:09.040Z,48.27
2023-05-08T09:32:38.139Z,48.56
2023-05-08T09:35:06.538Z,47.56
2023-05-08T09:37:33.924Z,47.04
2023-05-08T09:40:21.964Z,48.12
2023-05-08T09:42:50.191Z,47.47
2023-05-08T09:45:35.337Z,47.63
2023-05-08T09:48:02.199Z,46.74
2023-05-08T09:50:31.779Z,47.18
2023-05-08T09:52:58.305Z,45.98
2023-05-08T09:55:24.955Z,45.85
2023-05-08T09:57:54.535Z,45.56
2023-05-08T10:00:21.702Z,44.42
2023-05-08T10:03:14.260Z,43.23
2023-05-08T10:05:40.790Z,42.58
2023-05-08T10:08:23.727Z,43.14
2023-05-08T10:10:50.662Z,41.90
2023-05-08T10:13:17.223Z,42.10
2023-05-08T10:15:45.835Z,41.65
2023-05-08T10:18:15.960Z,42.25
2023-05-08T10:20:45.172Z,43.50
2023-05-08T10:23:18.393Z,43.59
2023-05-08T10:25:54.727Z,41.80
2023-05-08T10:28:44.285Z,41.39
2023-05-08T10:31:14.322Z,39.42
2023-05-08T10:33:41.548Z,39.14
2023-05-08T10:36:09.984Z,38.67
2023-05-08T10:38:37.941Z,39.29
2023-05-08T10:41:05.499Z,37.54
2023-05-08T10:43:32.780Z,38.15
2023-05-08T10:46:09.330Z,37.16
2023-05-08T10:48:56.615Z,38.33
2023-05-08T10:51:46.434Z,38.81
2023-05-08T10:54:30.753Z,39.49
2023-05-08T10:57:12.876Z,37.99
2023-05-08T10:59:45.276Z,38.01
2023-05-08T11:02:12.105Z,37.13
2023-05-08T11:04:38.772Z,37.46
2023-05-08T11:07:05.481Z,36.13
2023-05-08T11:09:40.937Z,34.98
2023-05-08T11:12:16.526Z,34.08
2023-05-08T11:14:47.958Z,34.22
2023-05-08T11:17:23.786Z,34.99
2023-05-08T11:20:04.457Z,33.86
2023-05-08T11:22:34.921Z,34.45
2023-05-08T11:25:10.880Z,34.58
2023-05-08T11:27:49.177Z,33.61
2023-05-08T11:30:35.167Z,33.27
2023-05-08T11:33:04.676Z,32.34
2023-05-08T11:35:41.782Z,33.00
2023-05-08T11:38:18.541Z,32.65
2023-05-08T11:40:46.185Z,31.12
2023-05-08T11:43:31.488Z,30.45
2023-05-08T11:46:05.819Z,32.49
2023-05-08T11:48:33.104Z,31.27
2023-05-08T11:51:00.582Z,30.35
2023-05-08T11:53:27.669Z,30.49
2023-05-08T11:55:54.496Z,31.11
2023-05-08T11:58:21.625Z,29.42
2023-05-08T12:00:49.456Z,29.93
2023-05-08T12:03:21.436Z,31.04
2023-05-08T12:05:49.784Z,31.42
2023-05-08T12:08:18.373Z,31.16
2023-05-08T12:10:52.559Z,30.92
2023-05-08T12:13:29.737Z,31.56
2023-05-08T12:15:59.047Z,31.28
2023-05-08T12:18:27.633Z,32.92
2023-05-08T12:20:57.345Z,32.14
2023-05-08T12:23:26.096Z,31.01
2023-05-08T12:25:55.423Z,30.51
2023-05-08T12:28:22.324Z,29.86
2023-05-08T12:30:49.912Z,30.74
2023-05-08T12:33:17.324Z,29.88
2023-05-08T12:35:44.126Z,29.40
2023-05-08T12:38:11.935Z,29.46
2023-05-08T12:40:47.613Z,30.10
2023-05-08T12:43:14.131Z,28.80
2023-05-08T12:45:43.162Z,29.70
2023-05-08T12:48:12.848Z,28.93
2023-05-08T12:50:44.506Z,28.57
2023-05-08T12:53:15.965Z,28.00
2023-05-08T12:56:11.814Z,28.37
2023-05-08T12:58:38.325Z,26.70
2023-05-08T13:01:07.393Z,27.46
2023-05-08T13:03:34.240Z,27.03
2023-05-08T13:06:01.013Z,27.34
2023-05-08T13:08:32.162Z,27.50
2023-05-08T13:10:59.187Z,26.73
2023-05-08T13:13:28.250Z,26.94
2023-05-08T13:15:56.060Z,28.05
2023-05-08T13:18:26.740Z,26.96
2023-05-08T13:20:54.656Z,27.73
2023-05-08T13:23:21.140Z,27.16
2023-05-08T13:25:47.824Z,28.08
2023-05-08T13:28:14.442Z,27.92
2023-05-08T13:30:40.936Z,27.35
2023-05-08T13:33:07.808Z,25.68
2023-05-08T13:35:35.237Z,26.53
2023-05-08T13:38:02.117Z,27.35
2023-05-08T13:40:28.669Z,27.63
2023-05-08T13:42:55.281Z,26.98
2023-05-08T13:45:21.979Z,28.17
2023-05-08T13:47:49.727Z,27.93
2023-05-08T13:50:18.360Z,28.52
2023-05-08T13:52:47.867Z,28.12
2023-05-08T13:55:14.549Z,28.67
2023-05-08T13:57:41.579Z,28.89
2023-05-08T14:00:09.604Z,27.85
2023-05-08T14:02:37.623Z,28.51
2023-05-08T14:05:05.306Z,28.42
2023-05-08T14:07:31.850Z,29.24
2023-05-08T14:09:58.398Z,28.44
2023-05-08T14:12:24.818Z,28.70
2023-05-08T14:14:51.253Z,28.43
2023-05-08T14:17:18.718Z,28.08
2023-05-08T14:19:46.178Z,28.90
2023-05-08T14:22:12.660Z,29.73
2023-05-08T14:24:39.541Z,28.96
2023-05-08T14:27:06.226Z,29.58
2023-05-08T14:29:33.764Z,28.95
2023-05-08T14:32:00.466Z,29.15
2023-05-08T14:34:26.952Z,28.54
2023-05-08T14:36:53.385Z,28.96
2023-05-08T14:39:20.123Z,28.97
2023-05-08T14:42:05.289Z,28.67
2023-05-08T14:44:33.287Z,29.78
2023-05-08T14:47:00.167Z,29.18
2023-05-08T14:49:36.575Z,29.79
2023-05-08T14:52:04.759Z,29.72
2023-05-08T14:54:31.784Z,29.65
2023-05-08T14:56:58.528Z,28.73
2023-05-08T14:59:24.927Z,29.18
2023-05-08T15:01:51.433Z,28.99
2023-05-08T15:04:18.233Z,28.98
2023-05-08T15:06:44.775Z,28.55
2023-05-08T15:09:11.380Z,28.03
2023-05-08T15:11:38.089Z,28.96
2023-05-08T15:14:05.125Z,29.18
2023-05-08T15:16:31.751Z,28.37
2023-05-08T15:18:58.297Z,28.14
2023-05-08T15:21:26.820Z,28.24
2023-05-08T15:23:56.064Z,28.74
2023-05-08T15:26:22.997Z,28.42
2023-05-08T15:28:52.418Z,27.61
2023-05-08T15:31:18.884Z,27.69
2023-05-08T15:33:48.691Z,28.80
2023-05-08T15:36:15.432Z,29.05
2023-05-08T15:38:42.806Z,29.04
2023-05-08T15:41:15.194Z,27.43
2023-05-08T15:43:44.422Z,27.95
2023-05-08T15:46:11.003Z,28.19
2023-05-08T15:48:37.449Z,28.11
2023-05-08T15:51:03.912Z,27.48
2023-05-08T15:53:30.624Z,26.52
2023-05-08T15:55:57.426Z,26.35
2023-05-08T15:58:24.191Z,26.83
2023-05-08T16:00:50.718Z,27.09
2023-05-08T16:03:17.340Z,27.32
2023-05-08T16:05:44.008Z,26.42
2023-05-08T16:08:12.673Z,26.38
2023-05-08T16:10:40.497Z,26.61
2023-05-08T16:13:07.178Z,25.79
2023-05-08T16:15:33.701Z,27.01
2023-05-08T16:18:03.613Z,25.51
2023-05-08T16:20:30.590Z,25.89
2023-05-08T16:22:58.286Z,25.34
2023-05-08T16:25:25.708Z,26.44
2023-05-08T16:27:55.531Z,24.79
2023-05-08T16:30:22.034Z,25.18
2023-05-08T16:32:48.502Z,24.96
2023-05-08T16:35:15.581Z,25.31
2023-05-08T16:37:42.398Z,25.09
2023-05-08T16:40:09.889Z,24.88
2023-05-08T16:42:36.960Z,25.37
2023-05-08T16:45:07.755Z,25.01
2023-05-08T16:47:34.922Z,25.14
2023-05-08T16:50:01.513Z,24.64
2023-05-08T16:52:28.019Z,24.99
2023-05-08T16:54:54.557Z,24.81
2023-05-08T16:57:21.058Z,25.11
2023-05-08T16:59:47.487Z,25.17
2023-05-08T17:02:18.545Z,25.05
2023-05-08T17:04:47.029Z,24.97
2023-05-08T17:07:17.333Z,25.70
2023-05-08T17:09:44.180Z,25.47
2023-05-08T17:12:10.669Z,24.93
2023-05-08T17:14:39.281Z,25.47
2023-05-08T17:17:06.340Z,24.99
2023-05-08T17:19:32.816Z,24.69
2023-05-08T17:21:59.974Z,25.06
2023-05-08T17:24:27.191Z,24.83
2023-05-08T17:26:53.722Z,25.53
2023-05-08T17:29:20.290Z,25.65
2023-05-08T17:31:46.894Z,25.26
2023-05-08T17:34:13.494Z,25.13
2023-05-08T17:36:40.020Z,25.51
2023-05-08T17:39:06.402Z,25.36
2023-05-08T17:41:32.905Z,26.27
2023-05-08T17:43:59.389Z,25.83
2023-05-08T17:46:25.961Z,27.13
2023-05-08T17:48:52.458Z,26.49
2023-05-08T17:51:22.000Z,26.33
2023-05-08T17:53:48.498Z,26.22
2023-05-08T17:56:20.207Z,26.26
2023-05-08T17:58:47.011Z,26.27
2023-05-08T18:01:13.552Z,26.07
2023-05-08T18:03:40.443Z,26.87
2023-05-08T18:06:07.077Z,26.67
2023-05-08T18:08:34.822Z,26.92
2023-05-08T18:11:01.303Z,27.44
2023-05-08T18:13:31.410Z,28.35
2023-05-08T18:16:00.596Z,28.06
2023-05-08T18:18:27.425Z,28.50
2023-05-08T18:20:53.852Z,28.44
2023-05-08T18:23:22.077Z,28.21
2023-05-08T18:25:53.682Z,29.29
2023-05-08T18:28:20.210Z,28.98
2023-05-08T18:30:46.587Z,28.56
2023-05-08T18:33:13.599Z,28.43
2023-05-08T18:35:40.096Z,29.27
2023-05-08T18:38:06.585Z,29.19
2023-05-08T18:40:33.060Z,29.58
2023-05-08T18:42:59.571Z,29.54
2023-05-08T18:45:26.010Z,29.95
2023-05-08T18:47:54.129Z,30.08
2023-05-08T18:50:20.644Z,30.05
2023-05-08T18:52:47.078Z,30.19
2023-05-08T18:55:13.469Z,30.73
2023-05-08T18:57:39.861Z,30.77
2023-05-08T19:00:06.906Z,30.53
2023-05-08T19:02:33.394Z,31.35
2023-05-08T19:05:00.672Z,31.91
2023-05-08T19:07:27.147Z,32.49
2023-05-08T19:09:55.461Z,31.62
2023-05-08T19:12:21.829Z,32.26
2023-05-08T19:14:50.195Z,32.44
2023-05-08T19:17:16.718Z,32.76
2023-05-08T19:19:43.267Z,32.77
2023-05-08T19:22:09.960Z,33.18
2023-05-08T19:24:36.453Z,32.43
2023-05-08T19:27:02.895Z,33.17
2023-05-08T19:29:29.422Z,33.38
2023-05-08T19:31:56.637Z,33.73
2023-05-08T19:34:23.890Z,33.70
2023-05-08T19:36:51.231Z,33.60
2023-05-08T19:39:17.906Z,33.92
2023-05-08T19:41:47.807Z,33.44
2023-05-08T19:44:14.269Z,33.55
2023-05-08T19:46:40.714Z,34.46
2023-05-08T19:49:07.411Z,34.08
2023-05-08T19:51:33.861Z,34.35
2023-05-08T19:54:00.431Z,34.52
2023-05-08T19:56:26.804Z,34.18
2023-05-08T19:58:53.213Z,34.68
2023-05-08T20:01:19.772Z,34.83
2023-05-08T20:03:46.305Z,35.68
2023-05-08T20:06:12.738Z,34.65
2023-05-08T20:08:39.164Z,35.29
2023-05-08T20:11:07.710Z,34.77
2023-05-08T20:13:34.100Z,35.22
2023-05-08T20:16:00.581Z,35.52
2023-05-08T20:18:27.063Z,35.23
2023-05-08T20:20:53.490Z,35.51
2023-05-08T20:23:19.980Z,36.24
2023-05-08T20:25:47.978Z,35.87
2023-05-08T20:28:15.506Z,37.47
2023-05-08T20:30:42.043Z,37.58
2023-05-08T20:33:08.596Z,37.18
2023-05-08T20:35:36.062Z,37.45
2023-05-08T20:38:02.803Z,37.78
2023-05-08T20:40:29.269Z,37.18
2023-05-08T20:42:58.248Z,39.14
2023-05-08T20:45:24.851Z,38.04
2023-05-08T20:47:51.367Z,38.01
2023-05-08T20:50:17.973Z,37.59
2023-05-08T20:52:45.505Z,37.90
2023-05-08T20:55:12.134Z,38.65
2023-05-08T20:57:39.117Z,38.79
2023-05-08T21:00:06.443Z,38.92
2023-05-08T21:02:33.828Z,39.03
2023-05-08T21:05:00.732Z,38.86
2023-05-08T21:07:27.237Z,39.17
2023-05-08T21:09:53.631Z,38.78
2023-05-08T21:12:20.035Z,39.14
2023-05-08T21:14:46.540Z,39.10
2023-05-08T21:17:12.969Z,39.61
2023-05-08T21:19:39.714Z,38.89
2023-05-08T21:22:07.507Z,39.14
2023-05-08T21:24:34.293Z,38.81
2023-05-08T21:27:00.781Z,39.28
2023-05-08T21:29:27.222Z,39.47
2023-05-08T21:31:53.762Z,39.17
2023-05-08T21:34:22.819Z,39.21
2023-05-08T21:36:49.360Z,39.47
2023-05-08T21:39:15.805Z,39.50
2023-05-08T21:41:43.249Z,39.65
2023-05-08T21:44:12.964Z,39.26
2023-05-08T21:46:41.970Z,39.91
2023-05-08T21:49:08.417Z,39.96
2023-05-08T21:51:35.176Z,40.79
2023-05-08T21:54:01.787Z,40.33
2023-05-08T21:56:28.201Z,39.61
2023-05-08T21:58:55.527Z,40.26
2023-05-08T22:01:22.054Z,39.82
2023-05-08T22:03:48.634Z,39.64
2023-05-08T22:06:15.330Z,39.96
2023-05-08T22:08:41.984Z,40.12
2023-05-08T22:11:08.377Z,40.55
2023-05-08T22:13:34.824Z,39.48
2023-05-08T22:16:01.443Z,39.75
2023-05-08T22:18:27.914Z,39.71
2023-05-08T22:20:55.124Z,39.55
2023-05-08T22:23:21.591Z,39.95
2023-05-08T22:25:48.094Z,39.91
2023-05-08T22:28:14.495Z,40.69
2023-05-08T22:30:40.971Z,40.40
2023-05-08T22:33:07.533Z,40.24
2023-05-08T22:35:34.452Z,40.01
2023-05-08T22:38:00.993Z,40.23
2023-05-08T22:40:28.536Z,40.39
2023-05-08T22:42:56.354Z,40.63
2023-05-08T22:45:23.193Z,40.46
2023-05-08T22:47:49.721Z,40.66
2023-05-08T22:50:16.962Z,40.87
2023-05-08T22:52:43.428Z,40.91
2023-05-08T22:55:09.947Z,40.86
2023-05-08T22:57:36.456Z,41.09
2023-05-08T23:00:03.456Z,41.20
2023-05-08T23:02:34.108Z,41.29
2023-05-08T23:05:01.886Z,41.00
2023-05-08T23:07:28.830Z,40.83
2023-05-08T23:09:55.312Z,41.31
2023-05-08T23:12:21.884Z,41.36
2023-05-08T23:14:48.252Z,41.25
2023-05-08T23:17:14.744Z,41.35
2023-05-08T23:19:42.442Z,41.44
2023-05-08T23:22:09.537Z,41.42
2023-05-08T23:24:36.728Z,41.70
2023-05-08T23:27:03.382Z,41.61
2023-05-08T23:29:30.196Z,41.64
2023-05-08T23:31:56.665Z,42.30
2023-05-08T23:34:23.377Z,42.02
2023-05-08T23:36:49.854Z,41.77
2023-05-08T23:39:16.477Z,42.56
2023-05-08T23:41:42.938Z,42.45
2023-05-08T23:44:10.336Z,41.99
2023-05-08T23:46:36.772Z,42.38
2023-05-08T23:49:05.428Z,42.67
2023-05-08T23:51:32.966Z,42.67
2023-05-08T23:53:59.510Z,42.19
2023-05-08T23:56:26.842Z,42.44
2023-05-08T23:58:53.306Z,42.55
